Commit Graph

  • c6dc76b007 scenario: fix SI unit violation master Sebastian Heimann 2021-09-16 09:04:42 +0200
  • 7d8211e2a2 fix typo in help string #11 dev-scenario Sebastian Heimann 2021-09-15 12:13:35 +0200
  • 7f851f8b0c scenario: fixing symlinking miili 2020-02-28 14:56:55 +0100
  • de06f71f84 scenario: changing saving order miili 2020-02-28 14:36:34 +0100
  • 0b484ddf24 scenario: improvements miili 2020-02-28 12:21:42 +0100
  • 666a02bf13 scenario: added --rebuild option for modified scenario.yml miili 2020-02-28 11:59:33 +0100
  • 33091aef96 scenario: adding source radius to rectangular source miili 2020-01-29 17:19:25 +0100
  • b88cc72397 scenario: added option --source-radius miili 2020-01-29 17:11:46 +0100
  • 2148f48703 scenario: station paths abs // fix typo miili 2020-01-29 17:07:55 +0100
  • f1b2150599 scenario: added import of stations miili 2020-01-29 16:36:32 +0100
  • a0586fa7ab give proper error message when phase does not exist for given geometry Sebastian Heimann 2020-06-17 22:52:22 +0200
  • 90ced6ae1d grond export: new selector `notcontains` Sebastian Heimann 2021-09-15 11:52:35 +0200
  • 67e4741bff allow export of problem name Pyrocko Tester 2021-07-16 13:14:54 +0200
  • 54dc2bea5c pick residual plots Pyrocko Tester 2021-03-13 17:16:27 +0100
  • 4bbfb8b57c grond export: add --effective-lat-lon option Pyrocko Tester 2021-03-10 13:27:23 +0100
  • 76ad37d037 locate with picks: pick residuals plot (wip) Sebastian Heimann 2020-01-08 14:29:02 +0100
  • 10ff881516 use String instead of StringID for event names Sebastian Heimann 2021-03-09 13:51:27 +0100
  • 9543410155 report: respect filter when clicking "Select all" Pyrocko Tester 2020-01-23 10:21:48 +0100
  • 766cd3cb37 locating with picks: fix weighting issue Sebastian Heimann 2020-01-08 14:27:27 +0100
  • 8ea4cabab8 picks: handle in report Pyrocko Tester 2020-01-06 12:42:48 +0100
  • 395298539f picks: improve robustness Pyrocko Tester 2020-01-06 12:42:03 +0100
  • 91152ff98e locate with picks: handle incomplete picksets, cache observed picks Pyrocko Tester 2019-10-15 10:56:27 +0200
  • 5acf56572a testing: improve speed of locate test Sebastian Heimann 2019-09-20 08:45:26 +0200
  • de65687338 pick residual fitting (Grond can now be used as a locator) Sebastian Heimann 2019-09-19 15:37:20 +0200
  • 15064d39d4 markdown support and authors wrap-angles Pyrocko Tester 2021-07-22 10:11:04 +0200
  • b4d9cd1904 cmt problem: wrap-around aware statistics for angles Sebastian Heimann 2021-07-22 00:41:29 +0200
  • 2d16a0a3d2 allow export of problem name locate Pyrocko Tester 2021-07-16 13:14:54 +0200
  • b828c44921 examples: update grondown, add --network option Sebastian Heimann 2021-06-22 14:46:46 +0200
  • 3307b10b6b Alternative DoubleSFProblem parametrisation: bugfixes WIP #31 sfsource mmetz 2021-06-17 11:28:52 +0200
  • f8e92717fc SFSource: New possible inversion method with rather independent sources mmetz 2021-06-16 17:45:56 +0200
  • c5a0dbb399 DoubleSFSource Problem: Fix force plotting mmetz 2021-06-11 16:00:41 +0200
  • 69062151ff wip mmetz 2021-06-09 13:36:26 +0200
  • b723cc5a55 landslide source: new beachball plot for sf couple mmetz 2021-06-09 12:45:23 +0200
  • abb986120d added smoothing factor of envelopes to config smoothed_envelopes gesape 2021-06-07 21:29:40 +0200
  • f37627e0c4 initial commit - smoothed envelop as additional waveform target gesape 2021-06-07 19:03:34 +0200
  • 5234d3ba38 dyn rupture problem: fix STF handling bug #33 dyn_rupt mmetz 2021-06-04 14:48:52 +0200
  • 0b86bfa5fe dyn rupt: remove magnitude from problem to adjust for new pyrocko version mmetz 2021-06-01 15:38:27 +0200
  • 50cdbcaf06 doubleSFSource: Dependants included for force vector components mmetz 2021-05-31 12:44:02 +0200
  • 3afc985bf6 bugfixes mmetz 2021-05-28 14:08:23 +0200
  • 75a88d379d Double SingleForce scheme setup: mmetz 2021-05-27 17:08:32 +0200
  • 3da546d250 dynrupt: bugfixes mmetz 2021-05-18 15:13:13 +0200
  • 7a7d3bae68 flake8 Sebastian Heimann 2021-05-03 16:36:06 +0200
  • cf2b726bca grond: fix problems related to unknown yaml tags in report Sebastian Heimann 2021-05-03 16:34:39 +0200
  • 8816816227 dynamic rupture: update plotting to new pyrocko version mmetz 2021-04-19 10:10:15 +0200
  • c6695f7392 dynamic rupture: plot fix and LightDynamicRuptureProblem mmetz 2021-04-01 10:50:13 +0200
  • 8f8ddc45e2 SFSource plot: Include std of forces in SFSourcePlot mmetz 2021-03-19 14:52:17 +0100
  • c3217042f4 SFSource plot: appearance fixes mmetz 2021-03-19 14:04:25 +0100
  • f233ee1a98 SFSource: Plot bugfix + best source force vector plots mmetz 2021-03-19 13:20:39 +0100
  • dc3fad0a9c WIP mmetz 2021-03-15 10:23:08 +0100
  • b2f4cf26ee SFProblem: flake8 mmetz 2021-03-15 12:55:51 +0100
  • 3006c4efd9 SFSource bugfix mmetz 2021-03-15 12:07:56 +0100
  • 0b2c73235c SFSource: Add plot class in report mmetz 2021-03-15 11:10:02 +0100
  • 0a121ce731 SFSource: bugfix added setup.py package mmetz 2021-03-15 11:03:47 +0100
  • 188b93ec01 SFProblem: Add folder... mmetz 2021-03-15 11:01:29 +0100
  • b53bc1b51c SFSource: Problem and Plot mmetz 2021-03-15 10:50:01 +0100
  • 1f43848b54 pick residual plots Pyrocko Tester 2021-03-13 17:16:27 +0100
  • fdf9caa2ad grond export: add --effective-lat-lon option Pyrocko Tester 2021-03-10 13:27:23 +0100
  • 85b57fcfbe locate with picks: pick residuals plot (wip) Sebastian Heimann 2020-01-08 14:29:02 +0100
  • d0bb833f6d use String instead of StringID for event names Sebastian Heimann 2021-03-09 13:51:27 +0100
  • 60c5aa4897 report: respect filter when clicking "Select all" Pyrocko Tester 2020-01-23 10:21:48 +0100
  • 93bd5782ef locating with picks: fix weighting issue Sebastian Heimann 2020-01-08 14:27:27 +0100
  • 3e66ff26be picks: handle in report Pyrocko Tester 2020-01-06 12:42:48 +0100
  • 514bb30a88 picks: improve robustness Pyrocko Tester 2020-01-06 12:42:03 +0100
  • a69e2668c5 locate with picks: handle incomplete picksets, cache observed picks Pyrocko Tester 2019-10-15 10:56:27 +0200
  • 5018bd9e7e testing: improve speed of locate test Sebastian Heimann 2019-09-20 08:45:26 +0200
  • 659eb42309 pick residual fitting (Grond can now be used as a locator) Sebastian Heimann 2019-09-19 15:37:20 +0200
  • 5c96858fc1 experiment: apply stfs in 'pre' mode alaska-bug Sebastian Heimann 2021-02-24 15:01:48 +0100
  • 6cb3e4570c fix plotting static fits: plotting w/o topography is fixed Henriette Sudhaus 2021-02-17 12:43:34 +0100
  • 4c24707396 dynamic rupture: patch_mask attribute in ProblemConfig mmetz 2021-02-05 13:15:42 +0100
  • 5272d8054f dynamic rupture plot: clean up Pyrocko Tester 2021-02-03 13:26:27 +0100
  • 8606ee1b17 InjectorPhase: Update and bugfix mmetz 2021-02-02 17:58:21 +0100
  • 4b043a728d dynamic rupture: bugfix anchor mmetz 2021-01-29 15:29:17 +0100
  • 78ab910738 dynamic rupture: anchor setable in config mmetz 2021-01-29 15:22:24 +0100
  • 16be44f78c dynamic rupture plot: bugfix mmetz 2021-01-20 19:09:08 +0100
  • e51d52b83c optimiser: logging error when inconsistent miili 2021-01-20 18:16:54 +0100
  • 9886398d5f dynamic rupture: bugfixes Pyrocko Tester 2021-01-15 14:36:41 +0100
  • ddb19d9d04 dynamic rupture: new map overview plot and refined STF plot mmetz 2021-01-15 14:33:29 +0100
  • 3ed8acb83d dynamic rupture light: wip mmetz 2020-12-10 17:45:06 +0100
  • 1a35dc4668 dynamic rupture: light problem implemented WIP mmetz 2020-12-10 17:26:29 +0100
  • d52bf5b10c dynamic rupture: bugfix mmetz 2020-12-10 17:03:59 +0100
  • f2b26341ba dyn rupt problem: use magnitude WIP mmetz 2020-11-18 14:20:44 +0100
  • 26e3dccc40 dynamic rupture plot: added STF moment rate release plot mmetz 2020-11-10 14:41:35 +0100
  • 67e975e5f4 double_dc: added fuzzy MT plot miili 2020-11-09 14:35:11 +0100
  • 9a000abe92 optimiser: New injection methods in InjectionSamplerPhase mmetz 2020-11-04 17:23:28 +0100
  • 10466380ff Update 'README.md' Marius Isken 2020-11-02 14:16:28 +0000
  • 3ae4a703a7 dyn rupt plot: fix variable ambiguity mmetz 2020-10-28 09:16:47 +0100
  • 2b33017720 dyn_rupt: flake8 mmetz 2020-10-27 14:06:59 +0100
  • d64bf5dc9c dyn rupt report: Refined slip map and general report behaviour mmetz 2020-10-26 16:22:48 +0100
  • 907b798a25 dynamic rupture plot: bugfix mmetz 2020-10-20 15:42:51 +0200
  • a73ec4108c dyn_rupt problem: gamma as new parameter mmetz 2020-09-28 10:07:05 +0200
  • b95508f443 finishing rebase: added optimize to Parameter miili 2020-09-22 12:23:20 +0200
  • fe5b4109a1 dyn_problem: fixing adaptive patching miili 2020-08-14 18:15:35 +0200
  • 5775583553 dyn_rupt: fixes and joint optimisations miili 2020-08-12 14:34:39 +0200
  • 2b1afa86d2 plots: upd miili 2020-08-07 13:02:00 +0200
  • 7627a697c4 dynamic rupture: wip miili 2020-08-06 15:57:06 +0200
  • 88a755cd44 dyn_rupt: wip miili 2020-07-31 16:35:22 +0200
  • 392470911a core: lockfile for rundir during inversion // fixes monitor miili 2020-07-31 16:34:22 +0200
  • 098021423c implementing traction fields miili 2020-06-02 16:55:22 +0200
  • f8ed05b793 plot: adding time contours miili 2020-04-28 16:11:50 +0200
  • 56dcffbd5f scenario: adding dynamic rupture miili 2020-04-28 16:11:41 +0200